createdAt,value
2022-08-05T00:00:16.131Z,9.77
2022-08-05T00:02:50.504Z,10.27
2022-08-05T00:06:02.682Z,8.43
2022-08-05T00:08:30.874Z,9.18
2022-08-05T00:10:56.481Z,9.68
2022-08-05T00:13:38.376Z,10.02
2022-08-05T00:16:09.552Z,9.43
2022-08-05T00:18:44.760Z,9.05
2022-08-05T00:21:12.729Z,8.93
2022-08-05T00:23:46.493Z,7.72
2022-08-05T00:26:20.713Z,10.45
2022-08-05T00:28:49.318Z,10.38
2022-08-05T00:31:16.442Z,9.65
2022-08-05T00:34:53.413Z,8.60
2022-08-05T00:37:13.204Z,16.30
2022-08-05T00:39:57.265Z,10.77
2022-08-05T00:42:35.425Z,19.58
2022-08-05T00:45:08.553Z,6.03
2022-08-05T00:47:57.002Z,7.05
2022-08-05T00:50:25.863Z,11.50
2022-08-05T00:52:53.519Z,11.25
2022-08-05T00:55:22.614Z,15.15
2022-08-05T00:57:58.200Z,10.65
2022-08-05T01:00:32.983Z,8.48
2022-08-05T01:03:02.689Z,8.70
2022-08-05T01:05:35.059Z,8.35
2022-08-05T01:08:42.110Z,6.35
2022-08-05T01:10:52.964Z,12.65
2022-08-05T01:13:58.846Z,14.65
2022-08-05T01:16:49.335Z,9.15
2022-08-05T01:20:01.963Z,9.95
2022-08-05T01:22:57.248Z,9.02
2022-08-05T01:25:40.681Z,5.97
2022-08-05T01:28:23.303Z,10.40
2022-08-05T01:31:03.494Z,8.70
2022-08-05T01:33:38.238Z,12.50
2022-08-05T01:36:16.168Z,6.35
2022-08-05T01:38:46.097Z,10.05
2022-08-05T01:41:21.606Z,8.85
2022-08-05T01:43:51.130Z,11.68
2022-08-05T01:46:41.346Z,10.23
2022-08-05T01:49:23.858Z,9.13
2022-08-05T01:51:58.292Z,12.07
2022-08-05T01:54:49.428Z,12.57
2022-08-05T01:58:30.011Z,13.60
2022-08-05T02:00:13.904Z,12.23
2022-08-05T02:02:54.434Z,12.30
2022-08-05T02:05:28.652Z,13.48
2022-08-05T02:08:00.961Z,9.10
2022-08-05T02:10:35.215Z,12.27
2022-08-05T02:13:16.378Z,10.68
2022-08-05T02:16:05.775Z,8.90
2022-08-05T02:18:41.807Z,9.20
2022-08-05T02:21:16.472Z,11.38
2022-08-05T02:23:46.262Z,10.27
2022-08-05T02:26:17.171Z,8.48
2022-08-05T02:28:48.240Z,5.93
2022-08-05T02:31:23.650Z,9.82
2022-08-05T02:34:03.803Z,10.75
2022-08-05T02:36:35.573Z,10.48
2022-08-05T02:39:04.994Z,9.90
2022-08-05T02:41:57.556Z,11.65
2022-08-05T02:44:24.968Z,10.10
2022-08-05T02:46:58.868Z,10.30
2022-08-05T02:49:43.466Z,11.73
2022-08-05T02:52:29.474Z,8.35
2022-08-05T02:55:01.921Z,11.88
2022-08-05T02:58:20.503Z,10.05
2022-08-05T03:00:20.194Z,11.10
2022-08-05T03:02:51.629Z,8.93
2022-08-05T03:05:21.948Z,10.57
2022-08-05T03:08:08.760Z,9.75
2022-08-05T03:10:36.243Z,5.70
2022-08-05T03:13:17.100Z,9.13
2022-08-05T03:15:48.060Z,13.57
2022-08-05T03:18:18.469Z,14.52
2022-08-05T03:20:51.319Z,8.07
2022-08-05T03:23:18.321Z,8.90
2022-08-05T03:26:04.895Z,7.63
2022-08-05T03:28:41.770Z,8.73
2022-08-05T03:31:09.107Z,10.25
2022-08-05T03:33:50.986Z,12.13
2022-08-05T03:36:18.339Z,11.02
2022-08-05T03:38:57.986Z,11.13
2022-08-05T03:41:24.554Z,9.15
2022-08-05T03:44:09.179Z,6.63
2022-08-05T03:46:38.116Z,10.60
2022-08-05T03:49:04.649Z,6.78
2022-08-05T03:52:49.414Z,14.45
2022-08-05T03:55:49.852Z,7.90
2022-08-05T03:57:42.381Z,7.53
2022-08-05T04:00:15.867Z,9.70
2022-08-05T04:02:57.697Z,6.60
2022-08-05T04:05:33.935Z,10.52
2022-08-05T04:08:29.652Z,13.35
2022-08-05T04:10:54.955Z,10.07
2022-08-05T04:13:22.011Z,10.23
2022-08-05T04:16:03.263Z,7.78
2022-08-05T04:18:32.302Z,8.95
2022-08-05T04:21:02.136Z,8.40
2022-08-05T04:24:05.694Z,6.97
2022-08-05T04:26:21.429Z,9.98
2022-08-05T04:28:51.046Z,9.30
2022-08-05T04:31:18.392Z,9.35
2022-08-05T04:34:18.751Z,10.32
2022-08-05T04:36:45.152Z,8.25
2022-08-05T04:39:12.956Z,10.63
2022-08-05T04:41:39.626Z,10.50
2022-08-05T04:44:09.518Z,9.23
2022-08-05T04:46:37.021Z,11.40
2022-08-05T04:49:14.617Z,9.85
2022-08-05T04:51:42.452Z,6.50
2022-08-05T04:54:10.366Z,7.22
2022-08-05T04:56:38.673Z,7.25
2022-08-05T04:59:24.308Z,9.80
2022-08-05T05:02:07.373Z,7.30
2022-08-05T05:04:35.420Z,9.10
2022-08-05T05:07:05.198Z,10.40
2022-08-05T05:09:39.975Z,8.35
2022-08-05T05:12:12.046Z,8.30
2022-08-05T05:14:54.891Z,4.45
2022-08-05T05:17:55.670Z,8.77
2022-08-05T05:20:14.883Z,5.80
2022-08-05T05:22:47.934Z,10.50
2022-08-05T05:25:17.549Z,8.13
2022-08-05T05:27:48.597Z,7.80
2022-08-05T05:30:31.443Z,8.93
2022-08-05T05:33:09.121Z,8.05
2022-08-05T05:35:45.790Z,10.18
2022-08-05T05:38:14.000Z,10.00
2022-08-05T05:40:49.855Z,8.05
2022-08-05T05:43:57.597Z,8.70
2022-08-05T05:46:17.579Z,7.38
2022-08-05T05:48:48.702Z,8.02
2022-08-05T05:51:27.701Z,10.70
2022-08-05T05:53:59.013Z,8.75
2022-08-05T05:56:34.759Z,7.53
2022-08-05T05:59:07.549Z,9.98
2022-08-05T06:01:37.396Z,6.90
2022-08-05T06:04:14.716Z,5.13
2022-08-05T06:06:47.522Z,6.55
2022-08-05T06:09:16.624Z,10.20
2022-08-05T06:11:59.516Z,6.03
2022-08-05T06:14:29.419Z,7.57
2022-08-05T06:16:56.999Z,8.68
2022-08-05T06:19:33.032Z,9.25
2022-08-05T06:22:02.531Z,10.48
2022-08-05T06:24:32.712Z,5.57
2022-08-05T06:27:01.868Z,9.18
2022-08-05T06:29:48.901Z,9.68
2022-08-05T06:32:25.146Z,6.80
2022-08-05T06:34:56.311Z,10.07
2022-08-05T06:37:56.182Z,10.35
2022-08-05T06:40:14.121Z,8.65
2022-08-05T06:42:48.161Z,7.45
2022-08-05T06:45:21.153Z,7.70
2022-08-05T06:48:36.386Z,6.85
2022-08-05T06:50:55.285Z,7.15
2022-08-05T06:53:22.459Z,5.13
2022-08-05T06:55:51.833Z,8.50
2022-08-05T06:58:30.048Z,13.00
2022-08-05T07:01:03.717Z,4.30
2022-08-05T07:03:32.704Z,7.55
2022-08-05T07:06:05.625Z,9.57
2022-08-05T07:08:48.050Z,6.68
2022-08-05T07:11:22.129Z,3.97
2022-08-05T07:14:15.649Z,4.75
2022-08-05T07:17:58.903Z,6.50
2022-08-05T07:22:32.965Z,6.97
2022-08-05T07:25:22.561Z,9.18
2022-08-05T07:27:58.151Z,9.65
2022-08-05T07:30:32.195Z,6.28
2022-08-05T07:33:05.403Z,5.32
2022-08-05T07:36:02.654Z,9.90
2022-08-05T07:38:31.977Z,5.53
2022-08-05T07:42:07.480Z,7.68
2022-08-05T07:43:55.166Z,5.43
2022-08-05T07:46:26.068Z,6.93
2022-08-05T07:49:04.225Z,7.70
2022-08-05T07:51:48.744Z,7.65
2022-08-05T07:54:31.147Z,7.82
2022-08-05T07:57:17.765Z,5.20
2022-08-05T07:59:49.189Z,4.30
2022-08-05T08:02:18.568Z,6.65
2022-08-05T08:04:47.446Z,5.90
2022-08-05T08:07:15.066Z,4.20
2022-08-05T08:09:42.314Z,4.25
2022-08-05T08:12:30.578Z,4.13
2022-08-05T08:15:02.686Z,5.38
2022-08-05T08:17:35.439Z,6.05
2022-08-05T08:20:22.150Z,6.00
2022-08-05T08:22:55.652Z,6.05
2022-08-05T08:25:27.101Z,6.03
2022-08-05T08:28:18.810Z,3.13
2022-08-05T08:30:59.761Z,8.70
2022-08-05T08:33:27.592Z,4.70
2022-08-05T08:36:18.421Z,3.55
2022-08-05T08:38:53.074Z,6.80
2022-08-05T08:41:22.240Z,8.18
2022-08-05T08:45:23.212Z,6.03
2022-08-05T08:46:45.162Z,2.95
2022-08-05T08:50:22.566Z,5.97
2022-08-05T08:52:17.852Z,6.10
2022-08-05T08:54:47.987Z,6.22
2022-08-05T08:57:14.924Z,2.95
2022-08-05T08:59:47.214Z,4.30
2022-08-05T09:02:19.463Z,5.10
2022-08-05T09:05:15.910Z,2.55
2022-08-05T09:07:55.815Z,4.85
2022-08-05T09:10:27.207Z,2.05
2022-08-05T09:12:55.514Z,3.67
2022-08-05T09:15:22.845Z,6.22
2022-08-05T09:17:52.886Z,2.92
2022-08-05T09:20:36.778Z,2.72
2022-08-05T09:23:19.028Z,2.83
2022-08-05T09:26:00.020Z,4.18
2022-08-05T09:28:33.445Z,3.58
2022-08-05T09:31:23.511Z,4.72
2022-08-05T09:34:01.100Z,2.22
2022-08-05T09:36:56.085Z,3.17
2022-08-05T09:39:42.017Z,2.90
2022-08-05T09:42:23.299Z,1.23
2022-08-05T09:44:56.529Z,2.85
2022-08-05T09:47:48.360Z,1.83
2022-08-05T09:50:18.241Z,3.90
2022-08-05T09:53:03.303Z,0.88
2022-08-05T09:55:58.277Z,2.10
2022-08-05T09:58:23.306Z,0.75
2022-08-05T10:01:13.521Z,2.33
2022-08-05T10:04:00.323Z,0.70
2022-08-05T10:06:28.029Z,1.48
2022-08-05T10:08:55.632Z,2.63
2022-08-05T10:11:22.939Z,2.25
2022-08-05T10:13:54.705Z,1.70
2022-08-05T10:16:29.114Z,1.40
2022-08-05T10:18:57.103Z,2.78
2022-08-05T10:21:24.228Z,1.95
2022-08-05T10:23:59.297Z,0.80
2022-08-05T10:26:32.441Z,1.98
2022-08-05T10:28:59.837Z,2.72
2022-08-05T10:32:55.447Z,1.38
2022-08-05T10:34:16.974Z,1.45
2022-08-05T10:36:44.521Z,2.95
2022-08-05T10:39:24.491Z,5.00
2022-08-05T10:42:18.586Z,1.33
2022-08-05T10:44:50.896Z,2.22
2022-08-05T10:47:27.015Z,1.85
2022-08-05T10:50:31.629Z,1.00
2022-08-05T10:53:01.105Z,2.33
2022-08-05T10:55:30.563Z,2.95
2022-08-05T10:58:14.966Z,2.83
2022-08-05T11:00:47.463Z,2.20
2022-08-05T11:03:24.776Z,1.02
2022-08-05T11:06:15.474Z,0.65
2022-08-05T11:09:17.381Z,1.33
2022-08-05T11:11:53.268Z,1.75
2022-08-05T11:14:57.844Z,1.88
2022-08-05T11:18:07.312Z,3.72
2022-08-05T11:20:46.185Z,0.90
2022-08-05T11:24:04.857Z,3.80
2022-08-05T11:26:43.337Z,0.82
2022-08-05T11:29:40.258Z,2.92
2022-08-05T11:32:27.615Z,2.17
2022-08-05T11:34:57.917Z,3.63
2022-08-05T11:38:36.952Z,2.50
2022-08-05T11:41:34.367Z,5.32
2022-08-05T11:44:40.453Z,1.15
2022-08-05T11:47:11.132Z,4.28
2022-08-05T11:49:51.181Z,2.08
2022-08-05T11:52:29.737Z,1.63
2022-08-05T11:55:07.291Z,1.17
2022-08-05T11:58:08.457Z,4.88
2022-08-05T12:00:31.339Z,2.67
2022-08-05T12:02:58.049Z,0.88
2022-08-05T12:05:32.223Z,4.30
2022-08-05T12:08:10.994Z,2.88
2022-08-05T12:10:45.801Z,1.08
2022-08-05T12:13:18.621Z,2.58
2022-08-05T12:15:55.903Z,1.63
2022-08-05T12:18:33.868Z,7.43
2022-08-05T12:21:12.482Z,2.08
2022-08-05T12:23:43.124Z,2.50
2022-08-05T12:26:10.169Z,2.17
2022-08-05T12:28:38.095Z,2.55
2022-08-05T12:31:05.540Z,0.80
2022-08-05T12:33:36.252Z,5.18
2022-08-05T12:36:08.155Z,3.22
2022-08-05T12:38:41.619Z,4.70
2022-08-05T12:41:16.333Z,1.30
2022-08-05T12:43:57.062Z,4.10
2022-08-05T12:46:29.336Z,2.00
2022-08-05T12:49:13.750Z,4.80
2022-08-05T12:52:12.389Z,2.20
2022-08-05T12:54:44.433Z,1.38
2022-08-05T12:57:13.172Z,0.85
2022-08-05T13:01:58.298Z,2.80
2022-08-05T13:02:40.186Z,0.60
2022-08-05T13:05:08.357Z,1.25
2022-08-05T13:07:59.267Z,0.98
2022-08-05T13:10:27.079Z,2.38
2022-08-05T13:12:58.592Z,0.80
2022-08-05T13:15:41.066Z,4.15
2022-08-05T13:18:19.607Z,4.50
2022-08-05T13:20:49.798Z,2.40
2022-08-05T13:23:18.016Z,1.40
2022-08-05T13:25:52.470Z,4.15
2022-08-05T13:28:26.039Z,1.45
2022-08-05T13:30:57.361Z,1.33
2022-08-05T13:34:21.355Z,1.75
2022-08-05T13:36:14.474Z,0.75
2022-08-05T13:38:42.512Z,1.45
2022-08-05T13:41:12.640Z,3.17
2022-08-05T13:43:45.341Z,1.42
2022-08-05T13:46:37.656Z,1.17
2022-08-05T13:49:11.773Z,3.80
2022-08-05T13:51:41.401Z,1.05
2022-08-05T13:54:11.805Z,2.65
2022-08-05T13:56:39.809Z,2.10
2022-08-05T13:59:19.501Z,2.35
2022-08-05T14:01:57.489Z,1.90
2022-08-05T14:04:51.454Z,0.98
2022-08-05T14:07:56.510Z,3.20
2022-08-05T14:10:08.690Z,1.08
2022-08-05T14:12:35.863Z,2.67
2022-08-05T14:15:06.022Z,1.77
2022-08-05T14:17:50.009Z,0.57
2022-08-05T14:20:17.565Z,2.97
2022-08-05T14:22:50.107Z,2.67
2022-08-05T14:25:21.586Z,3.45
2022-08-05T14:27:49.764Z,4.45
2022-08-05T14:30:20.284Z,2.63
2022-08-05T14:32:48.940Z,1.65
2022-08-05T14:35:16.313Z,3.58
2022-08-05T14:37:52.167Z,1.55
2022-08-05T14:40:21.738Z,0.98
2022-08-05T14:42:51.342Z,0.82
2022-08-05T14:45:18.758Z,1.30
2022-08-05T14:48:03.644Z,0.90
2022-08-05T14:50:33.185Z,2.83
2022-08-05T14:53:06.848Z,2.70
2022-08-05T14:55:39.407Z,3.05
2022-08-05T14:58:11.334Z,3.45
2022-08-05T15:00:57.948Z,0.52
2022-08-05T15:03:33.151Z,3.55
2022-08-05T15:06:07.371Z,1.83
2022-08-05T15:08:59.260Z,4.38
2022-08-05T15:11:50.968Z,2.67
2022-08-05T15:14:34.320Z,2.65
2022-08-05T15:17:04.792Z,1.10
2022-08-05T15:19:32.593Z,0.90
2022-08-05T15:22:01.305Z,4.95
2022-08-05T15:24:29.041Z,1.10
2022-08-05T15:26:58.230Z,2.28
2022-08-05T15:29:30.161Z,1.38
2022-08-05T15:32:02.279Z,2.50
2022-08-05T15:34:32.470Z,3.10
2022-08-05T15:37:06.454Z,0.93
2022-08-05T15:40:59.098Z,0.47
2022-08-05T15:42:53.705Z,5.13
2022-08-05T15:45:18.669Z,3.25
2022-08-05T15:47:49.780Z,4.50
2022-08-05T15:50:21.046Z,2.42
2022-08-05T15:52:54.970Z,1.17
2022-08-05T15:55:24.457Z,3.83
2022-08-05T15:57:52.203Z,5.18
2022-08-05T16:00:26.220Z,2.83
2022-08-05T16:02:59.754Z,2.50
2022-08-05T16:05:28.394Z,1.58
2022-08-05T16:07:55.368Z,2.40
2022-08-05T16:10:25.477Z,3.78
2022-08-05T16:12:56.065Z,3.53
2022-08-05T16:15:23.269Z,2.33
2022-08-05T16:17:57.733Z,1.00
2022-08-05T16:20:25.449Z,2.08
2022-08-05T16:22:52.154Z,2.95
2022-08-05T16:25:18.820Z,3.40
2022-08-05T16:27:59.607Z,5.60
2022-08-05T16:30:32.285Z,3.15
2022-08-05T16:33:00.552Z,3.88
2022-08-05T16:35:33.709Z,6.90
2022-08-05T16:38:23.774Z,5.30
2022-08-05T16:40:59.514Z,11.52
2022-08-05T16:43:33.062Z,8.88
2022-08-05T16:46:06.811Z,0.77
2022-08-05T16:48:38.580Z,0.93
2022-08-05T16:51:09.956Z,5.30
2022-08-05T16:54:05.211Z,2.67
2022-08-05T16:56:26.105Z,2.75
2022-08-05T16:58:52.995Z,7.90
2022-08-05T17:01:20.212Z,2.38
2022-08-05T17:03:47.462Z,4.28
2022-08-05T17:06:16.650Z,3.22
2022-08-05T17:08:52.817Z,4.20
2022-08-05T17:11:26.090Z,2.67
2022-08-05T17:14:05.751Z,3.78
2022-08-05T17:16:37.823Z,3.88
2022-08-05T17:19:07.846Z,4.45
2022-08-05T17:21:39.803Z,3.00
2022-08-05T17:24:19.368Z,2.50
2022-08-05T17:26:58.505Z,4.82
2022-08-05T17:29:33.813Z,1.55
2022-08-05T17:32:11.664Z,3.90
2022-08-05T17:34:44.776Z,2.65
2022-08-05T17:37:40.864Z,4.20
2022-08-05T17:40:02.399Z,0.85
2022-08-05T17:42:32.064Z,3.65
2022-08-05T17:45:00.266Z,2.22
2022-08-05T17:47:36.814Z,5.45
2022-08-05T17:50:10.925Z,4.82
2022-08-05T17:52:52.607Z,9.00
2022-08-05T17:55:19.607Z,4.40
2022-08-05T17:57:50.213Z,4.05
2022-08-05T18:00:18.563Z,5.78
2022-08-05T18:02:46.785Z,3.40
2022-08-05T18:05:13.753Z,4.55
2022-08-05T18:07:44.521Z,1.55
2022-08-05T18:10:11.819Z,3.92
2022-08-05T18:12:49.004Z,4.60
2022-08-05T18:15:15.775Z,2.15
2022-08-05T18:18:00.903Z,5.00
2022-08-05T18:20:31.740Z,2.13
2022-08-05T18:23:09.217Z,5.10
2022-08-05T18:25:39.050Z,3.80
2022-08-05T18:28:09.505Z,4.55
2022-08-05T18:30:39.118Z,4.97
2022-08-05T18:33:07.430Z,5.00
2022-08-05T18:36:01.270Z,3.92
2022-08-05T18:38:26.174Z,1.67
2022-08-05T18:41:57.002Z,2.67
2022-08-05T18:43:43.214Z,4.78
2022-08-05T18:46:15.713Z,5.32
2022-08-05T18:48:47.941Z,3.83
2022-08-05T18:52:04.358Z,6.90
2022-08-05T18:54:28.456Z,5.80
2022-08-05T18:57:01.361Z,7.35
2022-08-05T18:59:43.895Z,4.63
2022-08-05T19:02:26.834Z,3.53
2022-08-05T19:06:05.969Z,10.38
2022-08-05T19:07:55.197Z,5.75
2022-08-05T19:10:26.554Z,4.07
2022-08-05T19:12:55.929Z,3.00
2022-08-05T19:15:58.677Z,4.28
2022-08-05T19:18:21.775Z,3.58
2022-08-05T19:20:52.188Z,5.15
2022-08-05T19:24:03.878Z,6.35
2022-08-05T19:26:08.446Z,3.08
2022-08-05T19:28:38.110Z,2.90
2022-08-05T19:31:08.514Z,2.88
2022-08-05T19:33:36.815Z,7.70
2022-08-05T19:36:07.011Z,3.80
2022-08-05T19:38:36.594Z,3.08
2022-08-05T19:41:07.068Z,5.57
2022-08-05T19:44:05.375Z,2.60
2022-08-05T19:46:30.882Z,4.53
2022-08-05T19:49:03.219Z,5.13
2022-08-05T19:52:05.890Z,5.35
2022-08-05T19:54:31.233Z,7.07
2022-08-05T19:57:06.553Z,4.88
2022-08-05T19:59:56.073Z,5.13
2022-08-05T20:02:27.034Z,4.40
2022-08-05T20:04:58.892Z,3.85
2022-08-05T20:07:48.237Z,4.60
2022-08-05T20:10:14.774Z,5.95
2022-08-05T20:12:46.298Z,7.93
2022-08-05T20:15:22.950Z,6.95
2022-08-05T20:18:10.193Z,6.28
2022-08-05T20:20:57.467Z,7.82
2022-08-05T20:23:40.148Z,7.35
2022-08-05T20:26:16.184Z,7.38
2022-08-05T20:28:51.444Z,5.82
2022-08-05T20:31:28.268Z,9.68
2022-08-05T20:34:03.821Z,11.30
2022-08-05T20:36:33.261Z,8.98
2022-08-05T20:38:59.872Z,6.05
2022-08-05T20:41:44.266Z,6.20
2022-08-05T20:44:30.677Z,9.27
2022-08-05T20:47:03.436Z,3.85
2022-08-05T20:49:37.811Z,5.88
2022-08-05T20:52:07.011Z,7.22
2022-08-05T20:54:55.297Z,3.70
2022-08-05T20:57:41.974Z,6.35
2022-08-05T21:00:40.235Z,3.63
2022-08-05T21:03:01.308Z,6.43
2022-08-05T21:05:47.937Z,5.78
2022-08-05T21:08:18.291Z,6.03
2022-08-05T21:10:48.872Z,6.22
2022-08-05T21:13:20.267Z,6.85
2022-08-05T21:15:55.174Z,3.63
2022-08-05T21:18:23.350Z,5.50
2022-08-05T21:20:50.130Z,6.72
2022-08-05T21:23:16.708Z,9.57
2022-08-05T21:25:44.773Z,6.90
2022-08-05T21:28:12.119Z,13.18
2022-08-05T21:30:40.021Z,8.98
2022-08-05T21:33:11.283Z,7.28
2022-08-05T21:35:58.466Z,7.20
2022-08-05T21:38:26.386Z,9.10
2022-08-05T21:40:53.041Z,6.85
2022-08-05T21:43:24.645Z,9.23
2022-08-05T21:45:57.360Z,10.43
2022-08-05T21:48:26.660Z,9.75
2022-08-05T21:50:54.527Z,11.13
2022-08-05T21:53:21.557Z,9.90
2022-08-05T21:56:06.398Z,10.77
2022-08-05T21:58:57.232Z,7.40
2022-08-05T22:01:25.677Z,8.57
2022-08-05T22:03:53.582Z,11.55
2022-08-05T22:06:22.987Z,7.90
2022-08-05T22:09:01.861Z,10.32
2022-08-05T22:11:43.062Z,16.13
2022-08-05T22:14:34.553Z,9.90
2022-08-05T22:17:01.505Z,10.40
2022-08-05T22:20:01.158Z,10.63
2022-08-05T22:22:17.134Z,8.45
2022-08-05T22:25:20.897Z,12.00
2022-08-05T22:28:10.974Z,8.23
2022-08-05T22:30:55.436Z,9.88
2022-08-05T22:33:56.727Z,6.32
2022-08-05T22:36:10.697Z,6.82
2022-08-05T22:38:41.553Z,13.52
2022-08-05T22:41:10.113Z,7.40
2022-08-05T22:43:38.308Z,9.73
2022-08-05T22:46:13.237Z,7.65
2022-08-05T22:48:50.166Z,9.88
2022-08-05T22:51:23.092Z,5.38
2022-08-05T22:54:03.793Z,5.00
2022-08-05T22:56:31.433Z,8.00
2022-08-05T22:59:04.191Z,9.98
2022-08-05T23:02:04.147Z,8.27
2022-08-05T23:04:34.485Z,8.70
2022-08-05T23:07:01.447Z,9.57
2022-08-05T23:09:58.456Z,8.02
2022-08-05T23:12:17.848Z,5.55
2022-08-05T23:14:44.849Z,9.88
2022-08-05T23:17:24.401Z,5.03
2022-08-05T23:20:02.700Z,6.93
2022-08-05T23:22:29.734Z,7.25
2022-08-05T23:24:57.689Z,7.88
2022-08-05T23:27:24.267Z,4.60
2022-08-05T23:30:00.832Z,9.60
2022-08-05T23:32:28.468Z,4.88
2022-08-05T23:34:55.914Z,4.75
2022-08-05T23:37:22.820Z,8.68
2022-08-05T23:39:53.844Z,4.80
2022-08-05T23:42:23.260Z,14.80
2022-08-05T23:44:54.416Z,8.73
2022-08-05T23:47:21.126Z,7.75
2022-08-05T23:49:52.113Z,5.22
2022-08-05T23:52:27.599Z,6.78
2022-08-05T23:55:00.533Z,6.85
2022-08-05T23:57:29.937Z,13.68
